Time;durP1;ratioP1;P1;durP2;ratioP2;P2;SDS_P1;SDS_P2;PMS_P1;PMS_P2;Temp;Humidity;BMP_temperature;BMP_pressure;BME280_temperature;BME280_humidity;BME280_pressure;Samples;Min_cycle;Max_cycle;Signal;HPM_P1;HPM_P2
2021/12/16 00:02:00;;;;;;;2.73;2.73;;;16.80;67.90;;;;;;5044486;28;43893;-70
2021/12/16 00:07:23;;;;;;;2.93;2.83;;;16.70;68.00;;;;;;5047536;28;44092;-70
2021/12/16 00:10:03;;;;;;;3.00;2.90;;;16.70;68.20;;;;;;5048198;28;43460;-70
2021/12/16 00:32:00;;;;;;;2.80;2.80;;;16.70;68.10;;;;;;5029431;28;43839;-70
2021/12/16 00:34:30;;;;;;;3.17;3.07;;;16.70;68.30;;;;;;5029463;28;43966;-70
2021/12/16 00:36:58;;;;;;;2.87;2.80;;;16.60;68.30;;;;;;5028906;28;46039;-70
2021/12/16 00:39:27;;;;;;;3.10;3.00;;;16.60;68.50;;;;;;5028967;28;45754;-69
2021/12/16 00:42:02;;;;;;;3.00;2.90;;;16.60;68.50;;;;;;5022725;28;43980;-69
2021/12/16 00:47:29;;;;;;;3.00;2.90;;;16.60;68.60;;;;;;5046977;28;43912;-70
2021/12/16 00:50:06;;;;;;;3.23;3.13;;;16.60;68.80;;;;;;5047013;28;43989;-70
2021/12/16 00:55:31;;;;;;;2.93;2.83;;;16.80;68.20;;;;;;5047817;28;43965;-69
2021/12/16 00:57:59;;;;;;;3.03;2.93;;;17.00;67.70;;;;;;5028554;28;45385;-70
2021/12/16 01:00:30;;;;;;;2.90;2.90;;;17.10;67.20;;;;;;5046828;28;43451;-70
2021/12/16 01:03:11;;;;;;;3.00;2.90;;;17.20;66.90;;;;;;5028662;28;44149;-69
2021/12/16 01:09:02;;;;;;;3.10;3.00;;;17.10;66.90;;;;;;5028458;28;44058;-71
2021/12/16 01:34:14;;;;;;;3.03;2.93;;;16.80;68.00;;;;;;5028324;28;44420;-70
2021/12/16 01:37:10;;;;;;;3.07;2.97;;;16.90;67.70;;;;;;5028264;28;43990;-70
2021/12/16 01:40:06;;;;;;;2.63;2.63;;;16.90;67.70;;;;;;5028773;28;44085;-70
2021/12/16 01:45:29;;;;;;;3.20;3.10;;;16.80;67.80;;;;;;5028111;28;44021;-70
2021/12/16 01:48:54;;;;;;;3.30;3.20;;;16.70;68.00;;;;;;5026310;28;43990;-71
2021/12/16 01:51:22;;;;;;;3.00;2.90;;;16.70;68.20;;;;;;5028263;28;44079;-70
2021/12/16 01:57:07;;;;;;;2.80;2.80;;;16.60;68.40;;;;;;4970580;28;43519;-70
2021/12/16 01:59:38;;;;;;;3.43;3.33;;;16.60;68.50;;;;;;5021481;28;43938;-70
2021/12/16 02:02:15;;;;;;;2.97;2.87;;;16.60;68.60;;;;;;5031943;28;43951;-70
2021/12/16 02:05:07;;;;;;;2.90;2.87;;;16.60;68.60;;;;;;5027580;28;45427;-69
2021/12/16 02:07:50;;;;;;;3.03;2.93;;;16.60;68.80;;;;;;5027814;28;44417;-69
2021/12/16 02:10:23;;;;;;;2.97;2.87;;;16.70;68.70;;;;;;5028086;28;43824;-70
2021/12/16 02:13:00;;;;;;;2.90;2.80;;;16.80;68.20;;;;;;5028662;28;44030;-70
2021/12/16 02:29:23;;;;;;;3.20;3.10;;;17.00;67.50;;;;;;5027913;28;44468;-69
2021/12/16 02:31:57;;;;;;;2.83;2.83;;;16.90;67.70;;;;;;5028229;28;43965;-69
2021/12/16 02:34:32;;;;;;;2.83;2.77;;;16.80;68.10;;;;;;5028089;28;43984;-70
2021/12/16 02:37:10;;;;;;;2.80;2.80;;;16.70;68.00;;;;;;5021251;28;44043;-69
2021/12/16 02:39:38;;;;;;;2.90;2.80;;;16.70;68.20;;;;;;5036872;28;45051;-70
2021/12/16 02:42:12;;;;;;;2.90;2.80;;;16.70;68.30;;;;;;5027539;28;43905;-69
2021/12/16 02:48:28;;;;;;;3.27;3.17;;;16.60;68.30;;;;;;5027902;28;43992;-71
2021/12/16 02:50:15;;;;;;;2.93;2.87;;;16.80;68.30;;;;;;5028896;28;44049;-70
2021/12/16 02:52:45;;;;;;;3.30;3.20;;;16.90;68.60;;;;;;5029001;28;44009;-70
2021/12/16 02:55:14;;;;;;;2.93;2.83;;;16.90;67.70;;;;;;5027776;28;43587;-70
2021/12/16 02:57:47;;;;;;;2.97;2.87;;;16.90;67.80;;;;;;5027145;28;44643;-70
2021/12/16 03:00:16;;;;;;;3.00;2.90;;;16.80;67.90;;;;;;5027282;28;45237;-69
2021/12/16 03:02:48;;;;;;;3.33;3.23;;;16.80;68.00;;;;;;5027520;28;44040;-70
2021/12/16 03:05:16;;;;;;;3.27;3.17;;;16.70;68.10;;;;;;5026790;28;44053;-70
2021/12/16 03:07:45;;;;;;;3.50;3.40;;;16.70;68.30;;;;;;5028275;28;44797;-71
2021/12/16 03:10:52;;;;;;;3.03;2.93;;;16.70;68.40;;;;;;5026998;28;44338;-69
2021/12/16 03:13:25;;;;;;;2.80;2.73;;;16.60;68.40;;;;;;5026932;28;43974;-70
2021/12/16 03:16:05;;;;;;;2.77;2.67;;;16.60;68.50;;;;;;5027517;28;44353;-70
2021/12/16 03:18:40;;;;;;;3.20;3.10;;;16.60;68.60;;;;;;5028145;28;44063;-70
2021/12/16 03:21:15;;;;;;;2.83;2.73;;;16.60;68.70;;;;;;5026965;28;44231;-70
2021/12/16 03:23:59;;;;;;;2.73;2.73;;;16.60;68.80;;;;;;5026923;28;44004;-70
2021/12/16 03:35:28;;;;;;;3.00;2.90;;;17.10;67.50;;;;;;4989127;28;44085;-70
2021/12/16 03:37:57;;;;;;;3.23;3.13;;;17.20;67.10;;;;;;4986806;28;44127;-70
2021/12/16 03:40:27;;;;;;;3.00;2.90;;;17.20;66.90;;;;;;5017354;28;43951;-70
2021/12/16 03:42:58;;;;;;;3.10;3.00;;;17.10;67.00;;;;;;5026493;28;45863;-69
2021/12/16 03:48:23;;;;;;;2.93;2.83;;;16.90;67.50;;;;;;5027049;28;43764;-70
2021/12/16 03:50:51;;;;;;;3.00;2.90;;;16.90;67.90;;;;;;5026355;28;46091;-70
2021/12/16 03:53:19;;;;;;;2.93;2.83;;;16.80;68.00;;;;;;5026497;28;45770;-70
2021/12/16 03:55:49;;;;;;;2.97;2.87;;;16.70;68.10;;;;;;5026415;28;43977;-70
2021/12/16 03:58:18;;;;;;;3.23;3.13;;;16.70;68.30;;;;;;5026431;28;43989;-70
2021/12/16 04:00:53;;;;;;;3.27;3.17;;;16.70;68.30;;;;;;5026476;28;44980;-70
2021/12/16 04:03:21;;;;;;;3.30;3.20;;;16.70;68.60;;;;;;5036913;28;44748;-69
2021/12/16 04:05:50;;;;;;;3.07;2.97;;;16.70;68.50;;;;;;5025797;28;43863;-70
2021/12/16 04:08:18;;;;;;;3.00;2.90;;;16.80;68.10;;;;;;5027842;28;44168;-70
2021/12/16 04:11:02;;;;;;;2.80;2.80;;;16.90;67.80;;;;;;5026267;28;44893;-70
2021/12/16 04:13:52;;;;;;;2.83;2.83;;;16.90;67.70;;;;;;5027643;28;44045;-70
2021/12/16 04:16:27;;;;;;;2.80;2.70;;;16.90;67.70;;;;;;5026268;28;44139;-69
2021/12/16 04:18:55;;;;;;;2.63;2.63;;;16.80;67.80;;;;;;5025843;28;44005;-70
2021/12/16 04:21:26;;;;;;;3.13;3.03;;;16.80;68.00;;;;;;5025951;28;44012;-70
2021/12/16 04:23:55;;;;;;;2.70;2.70;;;16.80;68.10;;;;;;5025962;28;43432;-70
2021/12/16 04:26:28;;;;;;;2.80;2.73;;;16.70;68.10;;;;;;5026098;28;43938;-70
2021/12/16 04:28:56;;;;;;;2.67;2.67;;;16.70;68.20;;;;;;5027936;28;44005;-70
2021/12/16 04:31:27;;;;;;;2.80;2.70;;;16.70;68.30;;;;;;5027124;28;44144;-70
2021/12/16 04:33:56;;;;;;;2.57;2.57;;;16.70;68.40;;;;;;5027147;28;43494;-70
2021/12/16 04:36:31;;;;;;;2.87;2.77;;;16.70;68.40;;;;;;5025887;28;43993;-70
2021/12/16 04:39:00;;;;;;;2.87;2.77;;;16.60;68.40;;;;;;5026079;28;44019;-69
2021/12/16 04:41:34;;;;;;;2.80;2.70;;;16.60;68.50;;;;;;5025608;28;45460;-70
2021/12/16 04:44:03;;;;;;;2.60;2.60;;;16.70;68.60;;;;;;5025634;28;44750;-70
2021/12/16 04:46:31;;;;;;;3.07;2.97;;;16.80;68.30;;;;;;5025625;28;44120;-70
2021/12/16 04:49:01;;;;;;;3.30;3.10;;;17.00;67.90;;;;;;5026037;28;43454;-70
2021/12/16 04:51:37;;;;;;;3.23;3.03;;;17.10;67.40;;;;;;5025443;28;45645;-69
2021/12/16 04:54:06;;;;;;;3.50;3.30;;;17.20;67.00;;;;;;5025702;28;45282;-70
2021/12/16 04:56:37;;;;;;;4.20;3.90;;;17.20;66.70;;;;;;5025543;28;44070;-69
2021/12/16 04:59:11;;;;;;;4.20;3.90;;;17.20;66.70;;;;;;5025717;28;44286;-69
2021/12/16 05:01:42;;;;;;;3.87;3.57;;;17.10;66.90;;;;;;5005594;28;44061;-70
2021/12/16 05:04:11;;;;;;;3.77;3.57;;;17.00;67.20;;;;;;5022281;28;43956;-69
2021/12/16 05:06:39;;;;;;;4.50;4.20;;;17.00;67.40;;;;;;5025323;28;43917;-70
2021/12/16 05:09:12;;;;;;;5.77;4.30;;;16.90;67.70;;;;;;5025710;28;43541;-70
2021/12/16 05:11:47;;;;;;;4.20;3.90;;;16.80;67.90;;;;;;5025270;28;46165;-70
2021/12/16 05:14:19;;;;;;;4.87;4.40;;;16.80;68.00;;;;;;5025237;28;44563;-70
2021/12/16 05:16:47;;;;;;;4.73;4.33;;;16.70;68.10;;;;;;5025336;28;43969;-70
2021/12/16 05:19:16;;;;;;;7.53;4.60;;;16.70;68.20;;;;;;5025485;28;44071;-70
2021/12/16 05:21:51;;;;;;;4.60;4.20;;;16.70;68.50;;;;;;5025045;28;45428;-70
2021/12/16 05:24:26;;;;;;;4.87;4.47;;;16.80;68.40;;;;;;5025370;28;43918;-71
2021/12/16 05:27:09;;;;;;;4.97;4.57;;;16.90;68.00;;;;;;5025200;28;43432;-70
2021/12/16 05:29:38;;;;;;;4.77;4.27;;;16.90;68.30;;;;;;5018519;28;44059;-70
2021/12/16 05:32:08;;;;;;;4.70;4.20;;;16.90;67.60;;;;;;5015454;28;43923;-69
2021/12/16 05:34:36;;;;;;;4.40;4.00;;;16.90;67.70;;;;;;5005838;28;45470;-71
2021/12/16 05:37:07;;;;;;;4.93;4.53;;;16.80;67.80;;;;;;5025001;28;43430;-70
2021/12/16 05:39:38;;;;;;;5.07;4.57;;;16.80;68.00;;;;;;5025378;28;44034;-70
2021/12/16 05:42:26;;;;;;;5.67;4.70;;;16.70;68.10;;;;;;5025058;28;46659;-70
2021/12/16 05:44:54;;;;;;;4.67;4.27;;;16.70;68.30;;;;;;5025082;28;43910;-70
2021/12/16 05:47:22;;;;;;;5.00;4.60;;;16.70;68.30;;;;;;5025109;28;44010;-69
2021/12/16 05:49:51;;;;;;;5.53;5.07;;;16.60;68.40;;;;;;5025386;28;43918;-71
2021/12/16 05:52:19;;;;;;;5.37;4.80;;;16.60;68.50;;;;;;5025339;28;45973;-70
2021/12/16 05:54:47;;;;;;;5.10;4.80;;;16.60;68.60;;;;;;5024810;28;44010;-70
2021/12/16 05:57:37;;;;;;;5.23;4.70;;;16.60;68.70;;;;;;5026072;28;44058;-72
2021/12/16 06:00:14;;;;;;;5.50;4.77;;;16.60;68.80;;;;;;5024942;28;43869;-70
2021/12/16 06:02:42;;;;;;;7.50;5.07;;;16.70;68.70;;;;;;5023041;28;44702;-69
2021/12/16 06:05:10;;;;;;;5.37;4.67;;;16.80;68.40;;;;;;5024019;28;44214;-70
2021/12/16 06:07:38;;;;;;;5.23;4.73;;;16.90;67.90;;;;;;5024513;28;43980;-70
2021/12/16 06:10:08;;;;;;;5.03;4.53;;;17.10;67.50;;;;;;5024954;28;43421;-70
2021/12/16 06:12:37;;;;;;;5.63;5.03;;;17.20;67.20;;;;;;5025767;28;43929;-70
2021/12/16 06:15:18;;;;;;;5.10;4.60;;;17.20;67.00;;;;;;5025909;28;44095;-69
2021/12/16 06:28:48;;;;;;;4.93;4.60;;;16.80;68.10;;;;;;5026102;28;43414;-70
2021/12/16 06:31:17;;;;;;;5.07;4.67;;;16.70;68.20;;;;;;5019844;28;44174;-70
2021/12/16 06:33:45;;;;;;;5.00;4.60;;;16.70;68.40;;;;;;5017888;28;44342;-70
2021/12/16 06:36:13;;;;;;;5.00;4.60;;;16.70;68.50;;;;;;5019140;28;44075;-69
2021/12/16 06:38:41;;;;;;;4.97;4.57;;;16.60;68.60;;;;;;5024306;28;43914;-70
2021/12/16 06:41:34;;;;;;;5.27;4.80;;;16.70;68.70;;;;;;5021810;28;44538;-69
2021/12/16 06:44:28;;;;;;;5.37;4.87;;;16.80;68.30;;;;;;5028594;28;43801;-69
2021/12/16 06:47:01;;;;;;;4.50;4.20;;;16.90;67.90;;;;;;5027675;28;45281;-70
2021/12/16 06:49:31;;;;;;;5.87;4.93;;;16.90;67.70;;;;;;5027637;28;43902;-70
2021/12/16 06:52:02;;;;;;;4.83;4.43;;;16.90;67.90;;;;;;5028824;28;43402;-70
2021/12/16 06:54:35;;;;;;;5.63;4.97;;;16.90;68.00;;;;;;5028910;28;43980;-70
2021/12/16 06:57:17;;;;;;;6.03;4.63;;;16.80;68.10;;;;;;5028889;28;43941;-70
2021/12/16 06:59:53;;;;;;;4.97;4.57;;;16.80;68.20;;;;;;5028756;28;43443;-71
2021/12/16 07:02:45;;;;;;;4.83;4.43;;;16.70;68.30;;;;;;5029171;28;43921;-70
2021/12/16 07:05:14;;;;;;;5.03;4.53;;;16.70;68.50;;;;;;5036522;28;43945;-70
2021/12/16 07:07:42;;;;;;;4.93;4.60;;;16.60;68.60;;;;;;5048460;28;44016;-70
2021/12/16 07:10:11;;;;;;;4.97;4.57;;;16.60;68.70;;;;;;5048538;28;43964;-70
2021/12/16 07:12:46;;;;;;;5.13;4.63;;;16.60;68.80;;;;;;5048960;28;43400;-70
2021/12/16 07:15:18;;;;;;;5.40;4.90;;;16.60;68.90;;;;;;5048634;28;44046;-70
2021/12/16 07:17:45;;;;;;;4.87;4.47;;;16.60;69.00;;;;;;5048613;28;43924;-70
2021/12/16 07:20:15;;;;;;;4.67;4.37;;;16.60;69.00;;;;;;5048282;28;44043;-70
2021/12/16 07:22:43;;;;;;;4.80;4.40;;;16.70;68.60;;;;;;5048867;28;43547;-70
2021/12/16 07:25:11;;;;;;;4.80;4.40;;;16.90;68.20;;;;;;5048260;28;44011;-70
2021/12/16 07:27:39;;;;;;;4.90;4.50;;;17.00;67.70;;;;;;5048258;28;44072;-71
2021/12/16 07:30:08;;;;;;;4.73;4.43;;;17.10;67.20;;;;;;5048229;28;43974;-70
2021/12/16 07:32:37;;;;;;;4.83;4.50;;;17.20;67.10;;;;;;5048361;28;44231;-70
2021/12/16 07:35:06;;;;;;;4.80;4.40;;;17.10;67.00;;;;;;5047534;28;44047;-69
2021/12/16 07:37:34;;;;;;;5.03;4.63;;;17.10;67.30;;;;;;5047770;28;44060;-70
2021/12/16 07:40:06;;;;;;;4.70;4.40;;;17.00;67.50;;;;;;5047819;28;44102;-69
2021/12/16 07:42:44;;;;;;;4.30;4.10;;;16.90;67.70;;;;;;5048460;28;44046;-70
2021/12/16 07:45:12;;;;;;;5.10;4.70;;;16.90;67.90;;;;;;5047746;28;44202;-69
2021/12/16 07:47:42;;;;;;;4.60;4.30;;;16.80;68.00;;;;;;5047454;28;44506;-70
2021/12/16 07:50:10;;;;;;;4.70;4.47;;;16.80;68.20;;;;;;5047399;28;43936;-71
2021/12/16 07:52:40;;;;;;;4.37;4.00;;;16.70;68.30;;;;;;5019626;28;44221;-70
2021/12/16 07:55:10;;;;;;;4.80;4.50;;;16.70;68.50;;;;;;5041153;28;43866;-70
2021/12/16 07:57:38;;;;;;;4.63;4.33;;;16.70;68.60;;;;;;5029247;28;45284;-70
2021/12/16 08:00:14;;;;;;;4.77;4.47;;;16.80;68.50;;;;;;5047462;28;44091;-69
2021/12/16 08:02:43;;;;;;;4.83;4.40;;;16.90;68.10;;;;;;5030001;28;43953;-70
2021/12/16 08:05:11;;;;;;;4.53;4.23;;;16.90;67.90;;;;;;5046481;28;43930;-70
2021/12/16 08:07:39;;;;;;;4.50;4.20;;;16.90;67.90;;;;;;5047127;28;44101;-70
2021/12/16 08:10:09;;;;;;;4.20;4.00;;;16.80;67.90;;;;;;5047213;28;44000;-70
2021/12/16 08:12:37;;;;;;;4.70;4.40;;;16.80;68.20;;;;;;5047630;28;44249;-70
2021/12/16 08:15:06;;;;;;;4.83;4.53;;;16.70;68.30;;;;;;5047114;28;43789;-70
2021/12/16 08:17:34;;;;;;;4.30;4.00;;;16.70;68.40;;;;;;5047339;28;44139;-70
2021/12/16 08:20:04;;;;;;;4.23;4.03;;;16.70;68.60;;;;;;5047277;28;43386;-70
2021/12/16 08:22:32;;;;;;;4.67;4.37;;;16.60;68.60;;;;;;5047609;28;43984;-70
2021/12/16 08:25:00;;;;;;;4.90;4.60;;;16.60;68.70;;;;;;5047112;28;44864;-70
2021/12/16 08:27:28;;;;;;;4.17;3.87;;;16.60;68.70;;;;;;5028714;28;44887;-70
2021/12/16 08:29:56;;;;;;;5.43;5.03;;;16.60;68.70;;;;;;5046892;28;44056;-70
2021/12/16 08:32:24;;;;;;;4.47;4.17;;;16.60;68.80;;;;;;5047647;28;43831;-70
2021/12/16 08:34:52;;;;;;;4.53;4.27;;;16.60;68.90;;;;;;5047201;28;44840;-70
2021/12/16 08:37:24;;;;;;;4.73;4.33;;;16.70;68.90;;;;;;5028933;28;45121;-70
2021/12/16 08:39:52;;;;;;;4.13;3.93;;;16.80;68.60;;;;;;5047233;28;43986;-70
2021/12/16 08:42:20;;;;;;;4.60;4.30;;;17.00;68.10;;;;;;5047441;28;43911;-71
2021/12/16 08:44:48;;;;;;;4.87;4.47;;;17.10;67.60;;;;;;5046678;28;43580;-70
2021/12/16 08:47:17;;;;;;;4.90;4.50;;;17.20;67.10;;;;;;5046614;28;43863;-70
2021/12/16 08:49:46;;;;;;;4.70;4.40;;;17.20;66.90;;;;;;5028513;28;43989;-71
2021/12/16 08:52:15;;;;;;;4.43;4.20;;;17.20;67.00;;;;;;5047233;28;44278;-70
2021/12/16 08:54:45;;;;;;;4.83;4.60;;;17.10;67.20;;;;;;5046744;28;43897;-69
2021/12/16 08:57:13;;;;;;;4.77;4.37;;;17.00;67.40;;;;;;5046558;28;43522;-70
2021/12/16 08:59:43;;;;;;;4.67;4.37;;;16.90;67.70;;;;;;5046546;28;43933;-70
2021/12/16 09:02:11;;;;;;;4.97;4.60;;;16.90;67.90;;;;;;5046988;28;44112;-70
2021/12/16 09:04:39;;;;;;;5.17;4.70;;;16.80;68.10;;;;;;5046089;28;43885;-70
2021/12/16 09:07:08;;;;;;;4.60;4.23;;;16.80;68.20;;;;;;5046676;28;44031;-69
2021/12/16 09:09:36;;;;;;;4.50;4.30;;;16.70;68.30;;;;;;5046253;28;43952;-70
2021/12/16 09:12:11;;;;;;;4.27;4.07;;;16.70;68.40;;;;;;5029183;28;43930;-70
2021/12/16 09:14:40;;;;;;;4.53;4.23;;;16.70;68.60;;;;;;5046951;28;43920;-70
2021/12/16 09:17:11;;;;;;;4.53;4.23;;;16.70;68.60;;;;;;5046366;28;43894;-70
2021/12/16 09:19:39;;;;;;;4.17;3.97;;;16.80;68.30;;;;;;5046389;28;44015;-70
2021/12/16 09:22:07;;;;;;;4.20;4.00;;;16.90;67.90;;;;;;5046691;28;43568;-71
2021/12/16 09:24:35;;;;;;;4.17;3.97;;;16.90;67.80;;;;;;5046180;28;44136;-70
2021/12/16 09:27:03;;;;;;;4.30;4.00;;;16.90;68.00;;;;;;5046111;28;43908;-70
2021/12/16 09:29:32;;;;;;;4.50;4.20;;;16.80;68.10;;;;;;5027887;28;44008;-70
2021/12/16 09:32:02;;;;;;;4.83;4.43;;;16.80;68.20;;;;;;5046481;28;44049;-70
2021/12/16 09:34:34;;;;;;;4.27;3.97;;;16.70;68.30;;;;;;5046171;28;44786;-70
2021/12/16 09:37:02;;;;;;;4.30;4.10;;;16.70;68.50;;;;;;5039714;28;44178;-70
2021/12/16 09:39:31;;;;;;;4.33;4.03;;;16.70;68.70;;;;;;5039574;28;43991;-70
2021/12/16 09:41:59;;;;;;;4.43;4.13;;;16.60;68.70;;;;;;5040400;28;43945;-70
2021/12/16 09:44:28;;;;;;;4.13;3.93;;;16.60;68.70;;;;;;5039657;28;43957;-71
2021/12/16 09:46:58;;;;;;;4.30;4.10;;;16.60;68.80;;;;;;5039602;28;43974;-70
2021/12/16 09:49:26;;;;;;;4.20;4.00;;;16.60;68.80;;;;;;5039987;28;44014;-70
2021/12/16 09:51:55;;;;;;;4.53;4.20;;;16.60;68.90;;;;;;5046244;28;44021;-70
2021/12/16 09:54:25;;;;;;;4.23;4.03;;;16.60;69.10;;;;;;5045964;28;43952;-70
2021/12/16 09:56:53;;;;;;;4.47;4.27;;;16.70;68.90;;;;;;5045870;28;44106;-70
2021/12/16 09:59:22;;;;;;;3.97;3.77;;;16.80;68.50;;;;;;5045943;28;44000;-70
2021/12/16 10:01:52;;;;;;;4.13;3.93;;;17.00;68.10;;;;;;5046396;28;43606;-70
2021/12/16 10:04:25;;;;;;;4.20;4.00;;;17.10;67.50;;;;;;5045403;28;43862;-70
2021/12/16 10:06:57;;;;;;;4.13;3.93;;;17.20;67.20;;;;;;5045913;28;43499;-70
2021/12/16 10:09:24;;;;;;;3.87;3.70;;;17.20;67.00;;;;;;5045688;28;43914;-70
2021/12/16 10:11:55;;;;;;;4.57;4.27;;;17.20;67.20;;;;;;5046307;28;43856;-71
2021/12/16 10:14:44;;;;;;;4.30;4.10;;;17.10;67.40;;;;;;5045555;28;43972;-70
2021/12/16 10:17:24;;;;;;;4.30;4.10;;;17.00;67.60;;;;;;5047643;28;43930;-70
2021/12/16 10:19:55;;;;;;;3.97;3.77;;;16.90;67.80;;;;;;5031098;28;44003;-71
2021/12/16 10:22:26;;;;;;;4.20;4.00;;;16.90;68.10;;;;;;5031398;28;43937;-70
2021/12/16 10:24:56;;;;;;;3.90;3.70;;;16.80;68.30;;;;;;5049250;28;43955;-70
2021/12/16 10:27:25;;;;;;;3.97;3.77;;;16.80;68.40;;;;;;5049786;28;44046;-69
2021/12/16 10:29:55;;;;;;;3.70;3.60;;;16.70;68.40;;;;;;5048854;28;43956;-70
2021/12/16 10:32:36;;;;;;;3.50;3.40;;;16.70;68.50;;;;;;5049378;28;43992;-71
2021/12/16 10:35:09;;;;;;;4.00;3.80;;;16.70;68.70;;;;;;5048987;28;44889;-70
2021/12/16 10:37:38;;;;;;;4.10;3.90;;;16.80;68.50;;;;;;5048991;28;44146;-70
2021/12/16 10:40:29;;;;;;;3.60;3.50;;;16.90;68.20;;;;;;5048554;28;43478;-70
2021/12/16 10:42:57;;;;;;;4.00;3.80;;;16.90;68.00;;;;;;5031139;28;43954;-70
2021/12/16 10:45:28;;;;;;;3.63;3.53;;;16.90;68.00;;;;;;5048576;28;44168;-71
2021/12/16 10:48:18;;;;;;;3.80;3.60;;;16.80;68.10;;;;;;5048739;28;43998;-71
2021/12/16 10:51:00;;;;;;;4.00;3.80;;;16.80;68.40;;;;;;5048660;28;43522;-70
2021/12/16 10:54:14;;;;;;;3.63;3.43;;;16.70;68.50;;;;;;5037875;28;44143;-70
2021/12/16 10:56:46;;;;;;;3.63;3.43;;;16.70;68.70;;;;;;5030148;28;46123;-70
2021/12/16 10:59:16;;;;;;;3.60;3.40;;;16.60;68.70;;;;;;5042554;28;43857;-70
2021/12/16 11:01:56;;;;;;;3.97;3.77;;;16.60;68.80;;;;;;5042254;28;43341;-70
2021/12/16 11:04:27;;;;;;;3.60;3.50;;;16.60;68.90;;;;;;5048936;28;43456;-70
2021/12/16 11:06:59;;;;;;;3.93;3.73;;;16.60;69.00;;;;;;5030020;28;46119;-70
2021/12/16 11:09:40;;;;;;;4.00;3.80;;;16.60;69.00;;;;;;5048374;28;44025;-70
2021/12/16 11:12:14;;;;;;;3.60;3.40;;;16.60;69.10;;;;;;5048464;28;44023;-70
2021/12/16 11:14:43;;;;;;;3.50;3.40;;;16.60;69.10;;;;;;5048642;28;44013;-69
2021/12/16 11:17:12;;;;;;;3.50;3.40;;;16.70;68.90;;;;;;5048139;28;44060;-71
2021/12/16 11:19:41;;;;;;;3.50;3.40;;;16.90;68.40;;;;;;5047964;28;44015;-70
2021/12/16 11:22:11;;;;;;;3.57;3.43;;;17.00;67.90;;;;;;5047850;28;44005;-71
2021/12/16 11:24:39;;;;;;;3.40;3.23;;;17.10;67.50;;;;;;5048486;28;43813;-70
2021/12/16 11:27:27;;;;;;;3.50;3.40;;;17.20;67.30;;;;;;5047521;28;43893;-69
2021/12/16 11:29:56;;;;;;;3.50;3.40;;;17.10;67.30;;;;;;5043659;28;43984;-70
2021/12/16 11:32:37;;;;;;;3.40;3.30;;;17.10;67.50;;;;;;5048193;28;43830;-71
2021/12/16 11:35:39;;;;;;;3.90;3.70;;;17.00;67.70;;;;;;5048519;28;43889;-70
2021/12/16 11:38:13;;;;;;;3.17;3.07;;;16.90;68.00;;;;;;4966753;28;45148;-71
2021/12/16 11:41:05;;;;;;;3.23;3.13;;;16.80;68.10;;;;;;5035011;28;43960;-71
2021/12/16 11:43:35;;;;;;;3.40;3.30;;;16.80;68.40;;;;;;5048311;28;43905;-70
2021/12/16 11:46:04;;;;;;;3.60;3.50;;;16.80;68.60;;;;;;5041922;28;43432;-70
2021/12/16 11:48:35;;;;;;;3.17;3.07;;;16.70;68.60;;;;;;5041205;28;44033;-70
2021/12/16 11:51:05;;;;;;;3.33;3.23;;;16.70;68.70;;;;;;5041299;28;43930;-70
2021/12/16 11:53:40;;;;;;;2.97;2.87;;;16.70;69.00;;;;;;5047879;28;43980;-71
2021/12/16 11:56:10;;;;;;;3.37;3.17;;;16.80;68.80;;;;;;5048294;28;43431;-70
2021/12/16 11:58:39;;;;;;;3.20;3.10;;;16.90;68.30;;;;;;5029171;28;45832;-70
2021/12/16 12:01:19;;;;;;;3.10;3.00;;;16.90;68.00;;;;;;5047024;28;43695;-70
2021/12/16 12:03:47;;;;;;;3.13;3.00;;;16.90;68.00;;;;;;5047983;28;44313;-71
2021/12/16 12:06:20;;;;;;;3.50;3.40;;;16.90;68.20;;;;;;5047465;28;43556;-70
2021/12/16 12:08:50;;;;;;;2.93;2.83;;;16.80;68.30;;;;;;5047480;28;43965;-70
2021/12/16 12:11:19;;;;;;;3.10;3.00;;;16.80;68.50;;;;;;5047311;28;44026;-69
2021/12/16 12:13:49;;;;;;;3.30;3.10;;;16.70;68.60;;;;;;5047307;28;43965;-70
2021/12/16 12:16:18;;;;;;;2.80;2.70;;;16.70;68.70;;;;;;5047643;28;43485;-70
2021/12/16 12:18:48;;;;;;;3.40;3.30;;;16.60;68.80;;;;;;5047103;28;43924;-69
2021/12/16 12:21:28;;;;;;;3.33;3.23;;;16.60;69.00;;;;;;5046907;28;43533;-70
2021/12/16 12:23:59;;;;;;;2.67;2.57;;;16.60;69.00;;;;;;5047391;28;43897;-71
2021/12/16 12:26:28;;;;;;;2.80;2.70;;;16.60;69.10;;;;;;5047731;28;43454;-70
2021/12/16 12:28:57;;;;;;;3.00;2.90;;;16.60;69.20;;;;;;5047005;28;43872;-69
2021/12/16 12:31:27;;;;;;;3.10;2.90;;;16.60;69.30;;;;;;5028483;28;44074;-70
2021/12/16 12:33:55;;;;;;;2.97;2.87;;;16.60;69.20;;;;;;5047375;28;43786;-69
2021/12/16 12:36:24;;;;;;;2.90;2.80;;;16.80;69.00;;;;;;5047495;28;44073;-70
2021/12/16 12:38:52;;;;;;;2.90;2.80;;;16.90;68.40;;;;;;5046686;28;43973;-70
2021/12/16 12:41:21;;;;;;;2.67;2.57;;;17.10;68.00;;;;;;5046919;28;44028;-70
2021/12/16 12:43:50;;;;;;;2.80;2.70;;;17.20;67.50;;;;;;5047060;28;43919;-70
2021/12/16 12:46:18;;;;;;;3.00;2.90;;;17.20;67.20;;;;;;5047313;28;43901;-70
2021/12/16 12:48:47;;;;;;;2.63;2.53;;;17.20;67.30;;;;;;5046661;28;43961;-71
2021/12/16 12:51:15;;;;;;;2.70;2.60;;;17.10;67.40;;;;;;5046268;28;43956;-71
2021/12/16 12:53:48;;;;;;;2.40;2.40;;;17.00;67.70;;;;;;5046866;28;43388;-70
2021/12/16 12:56:19;;;;;;;3.03;2.93;;;17.00;68.00;;;;;;5047246;28;44012;-70
2021/12/16 12:58:59;;;;;;;2.57;2.53;;;16.90;68.20;;;;;;5046408;28;44702;-70
2021/12/16 13:01:35;;;;;;;2.73;2.63;;;16.80;68.30;;;;;;5046440;28;43394;-70
2021/12/16 13:04:05;;;;;;;3.10;3.00;;;16.80;68.50;;;;;;5046322;28;44020;-70
2021/12/16 13:06:38;;;;;;;2.70;2.60;;;16.70;68.50;;;;;;5028263;28;44088;-70
2021/12/16 13:09:14;;;;;;;2.60;2.50;;;16.70;68.70;;;;;;5046448;28;43767;-71
2021/12/16 13:11:42;;;;;;;3.00;2.90;;;16.70;69.00;;;;;;5046139;28;43910;-70
2021/12/16 13:14:21;;;;;;;2.37;2.37;;;16.80;68.80;;;;;;5046546;28;44050;-70
2021/12/16 13:17:05;;;;;;;2.90;2.80;;;16.90;68.40;;;;;;5047248;28;44022;-70
2021/12/16 13:25:56;;;;;;;2.60;2.50;;;16.90;68.20;;;;;;5046302;28;43899;-70
2021/12/16 13:28:26;;;;;;;2.80;2.70;;;16.80;68.30;;;;;;5042379;28;44009;-70
2021/12/16 13:31:00;;;;;;;2.30;2.30;;;16.70;68.40;;;;;;5046380;28;44022;-70
2021/12/16 13:33:38;;;;;;;2.70;2.60;;;16.70;68.70;;;;;;5046215;28;44011;-70
2021/12/16 13:36:06;;;;;;;2.57;2.50;;;16.70;68.70;;;;;;5046266;28;43891;-70
2021/12/16 13:38:38;;;;;;;2.60;2.50;;;16.70;68.80;;;;;;5046428;28;43603;-70
2021/12/16 13:41:08;;;;;;;2.50;2.50;;;16.60;69.00;;;;;;5039562;28;45119;-70
2021/12/16 13:43:37;;;;;;;2.80;2.70;;;16.60;69.00;;;;;;5039777;28;44072;-69
2021/12/16 13:46:27;;;;;;;2.67;2.57;;;16.60;69.10;;;;;;5045983;28;43975;-70
2021/12/16 13:58:09;;;;;;;2.67;2.57;;;16.60;69.10;;;;;;5046574;28;44100;-71
2021/12/16 14:03:51;;;;;;;2.50;2.30;;;17.20;67.20;;;;;;5049346;28;43923;-69
2021/12/16 14:06:36;;;;;;;2.43;2.37;;;17.20;67.20;;;;;;5045279;28;44396;-70
2021/12/16 14:09:13;;;;;;;2.53;2.50;;;17.10;67.40;;;;;;5041444;28;44264;-71
2021/12/16 14:14:52;;;;;;;2.60;2.60;;;17.00;67.80;;;;;;5049337;28;44060;-70
2021/12/16 14:17:42;;;;;;;2.47;2.37;;;16.90;68.10;;;;;;5049488;28;43956;-70
2021/12/16 14:23:07;;;;;;;2.70;2.60;;;16.80;68.40;;;;;;5026148;28;43959;-70
2021/12/16 14:25:40;;;;;;;2.47;2.43;;;16.80;68.60;;;;;;5030494;28;45871;-70
2021/12/16 14:31:21;;;;;;;2.80;2.43;;;16.70;68.70;;;;;;5049463;28;43353;-70
2021/12/16 14:37:09;;;;;;;2.43;2.40;;;17.00;67.90;;;;;;5048912;28;43986;-69
2021/12/16 14:42:36;;;;;;;2.27;2.27;;;17.00;68.00;;;;;;5049187;28;43985;-70
2021/12/16 14:45:32;;;;;;;2.47;2.47;;;16.90;68.10;;;;;;5030987;28;43509;-70
2021/12/16 14:50:47;;;;;;;2.37;2.30;;;16.80;68.50;;;;;;5048598;28;43920;-70
2021/12/16 14:53:21;;;;;;;2.70;2.60;;;16.70;68.60;;;;;;5048601;28;43965;-70
2021/12/16 14:55:50;;;;;;;2.30;2.23;;;16.70;68.80;;;;;;5049371;28;43376;-71
2021/12/16 14:58:20;;;;;;;2.30;2.30;;;16.70;68.90;;;;;;5048135;28;44852;-70
2021/12/16 15:00:49;;;;;;;2.50;2.40;;;16.70;69.00;;;;;;5048404;28;43921;-70
2021/12/16 15:03:18;;;;;;;2.40;2.30;;;16.60;69.00;;;;;;5048238;28;44002;-69
2021/12/16 15:05:52;;;;;;;2.40;2.40;;;16.70;69.10;;;;;;5041814;28;44327;-69
2021/12/16 15:08:27;;;;;;;2.43;2.40;;;16.60;69.10;;;;;;5030169;28;47136;-71
2021/12/16 15:10:55;;;;;;;2.47;2.27;;;16.70;68.90;;;;;;5048467;28;43965;-70
2021/12/16 15:13:28;;;;;;;2.40;2.40;;;16.80;68.50;;;;;;5048586;28;44025;-70
2021/12/16 15:16:18;;;;;;;2.47;2.37;;;17.00;68.00;;;;;;5048890;28;44035;-70
2021/12/16 15:42:45;;;;;;;2.10;2.10;;;16.80;68.60;;;;;;5047602;28;44029;-70
2021/12/16 15:43:53;;;;;;;2.50;2.20;;;16.70;68.70;;;;;;5047888;28;44051;-70
2021/12/16 15:46:21;;;;;;;1.83;1.83;;;16.70;68.90;;;;;;5048283;28;44060;-69
2021/12/16 15:48:50;;;;;;;1.90;1.90;;;16.70;68.70;;;;;;5048074;28;44035;-70
2021/12/16 15:51:18;;;;;;;2.23;2.13;;;16.90;68.40;;;;;;5047381;28;44145;-70
2021/12/16 15:53:48;;;;;;;2.00;2.00;;;16.90;68.00;;;;;;5047501;28;43973;-70
2021/12/16 15:56:19;;;;;;;2.30;2.20;;;17.00;68.00;;;;;;5047778;28;43950;-70